Time;durP1;ratioP1;P1;durP2;ratioP2;P2;SDS_P1;SDS_P2;PMS_P1;PMS_P2;Temp;Humidity;BMP_temperature;BMP_pressure;BME280_temperature;BME280_humidity;BME280_pressure;Samples;Min_cycle;Max_cycle;Signal;HPM_P1;HPM_P2
2021/08/21 00:02:00;;;;;;;13.05;9.57;;;16.00;99.90;;;;;;4992324;28;20539;-67
2021/08/21 00:04:28;;;;;;;11.43;10.20;;;16.00;99.90;;;;;;5002315;28;20208;-68
2021/08/21 00:06:55;;;;;;;11.85;9.80;;;16.00;99.90;;;;;;4999803;28;20233;-69
2021/08/21 00:09:22;;;;;;;10.40;7.68;;;16.00;99.90;;;;;;4998561;28;20207;-69
2021/08/21 00:11:49;;;;;;;11.38;8.45;;;16.00;99.90;;;;;;5007509;28;20208;-69
2021/08/21 00:14:16;;;;;;;13.70;9.27;;;15.90;99.90;;;;;;5013164;28;20252;-69
2021/08/21 00:16:43;;;;;;;11.88;8.85;;;15.80;99.90;;;;;;5008992;28;20202;-69
2021/08/21 00:19:10;;;;;;;8.45;7.65;;;15.70;99.90;;;;;;5002023;28;20198;-69
2021/08/21 00:21:37;;;;;;;9.10;8.23;;;15.70;99.90;;;;;;4994171;28;20233;-68
2021/08/21 00:24:05;;;;;;;8.20;7.40;;;15.60;99.90;;;;;;4993459;28;20477;-69
2021/08/21 00:26:32;;;;;;;10.82;9.18;;;15.60;99.90;;;;;;5003048;28;20279;-68
2021/08/21 00:28:59;;;;;;;9.77;7.93;;;15.80;99.90;;;;;;5002516;28;20382;-68
2021/08/21 00:31:27;;;;;;;9.13;7.95;;;15.50;99.90;;;;;;4993409;28;20383;-69
2021/08/21 00:33:54;;;;;;;8.50;7.60;;;15.40;99.90;;;;;;4998176;28;20336;-69
2021/08/21 00:36:21;;;;;;;13.07;9.02;;;15.40;99.90;;;;;;4993061;28;20389;-69
2021/08/21 00:38:48;;;;;;;12.48;10.38;;;15.40;99.90;;;;;;4993390;28;20229;-69
2021/08/21 00:41:15;;;;;;;11.38;10.15;;;15.30;99.90;;;;;;5002373;28;20198;-68
2021/08/21 00:43:42;;;;;;;11.68;8.55;;;15.30;99.90;;;;;;4998194;28;20325;-68
2021/08/21 00:46:10;;;;;;;10.35;9.23;;;15.20;99.90;;;;;;4997865;28;20264;-68
2021/08/21 00:48:37;;;;;;;10.82;8.25;;;15.10;99.90;;;;;;4997220;28;20208;-70
2021/08/21 00:51:04;;;;;;;10.90;9.13;;;15.00;99.90;;;;;;5005668;28;20508;-69
2021/08/21 00:53:32;;;;;;;11.68;9.45;;;15.00;99.90;;;;;;4992895;28;20260;-69
2021/08/21 00:56:01;;;;;;;17.00;9.60;;;14.90;99.90;;;;;;4997589;28;20202;-69
2021/08/21 00:58:30;;;;;;;11.45;9.98;;;14.90;99.90;;;;;;4997383;28;20206;-68
2021/08/21 01:00:57;;;;;;;11.82;9.75;;;14.90;99.90;;;;;;5010484;28;20247;-68
2021/08/21 01:03:24;;;;;;;14.05;10.40;;;14.90;99.90;;;;;;4998480;28;20271;-68
2021/08/21 01:05:52;;;;;;;16.92;12.05;;;14.90;99.90;;;;;;4997458;28;20472;-68
2021/08/21 01:08:19;;;;;;;16.60;12.45;;;14.80;99.90;;;;;;4993120;28;20233;-68
2021/08/21 01:10:47;;;;;;;13.90;12.20;;;14.70;99.90;;;;;;4993724;28;20261;-68
2021/08/21 01:13:14;;;;;;;13.30;11.50;;;14.80;99.90;;;;;;4995821;28;20277;-68
2021/08/21 01:15:41;;;;;;;13.95;12.07;;;14.80;99.90;;;;;;4992678;28;20209;-69
2021/08/21 01:18:09;;;;;;;17.63;13.57;;;14.90;99.90;;;;;;4997329;28;20212;-68
2021/08/21 01:20:36;;;;;;;12.68;11.30;;;14.80;99.90;;;;;;5002238;28;20248;-68
2021/08/21 01:23:05;;;;;;;15.30;12.60;;;14.80;99.90;;;;;;5001754;28;20548;-68
2021/08/21 01:25:32;;;;;;;16.10;13.68;;;14.70;99.90;;;;;;5001646;28;20496;-68
2021/08/21 01:28:00;;;;;;;15.50;13.93;;;14.80;99.90;;;;;;4991989;28;20201;-68
2021/08/21 01:30:27;;;;;;;15.90;13.13;;;14.70;99.90;;;;;;5006068;28;20240;-69
2021/08/21 01:32:54;;;;;;;15.00;13.38;;;14.70;99.90;;;;;;4998415;28;20579;-69
2021/08/21 01:35:21;;;;;;;16.85;11.60;;;14.70;99.90;;;;;;4979968;28;20203;-70
2021/08/21 01:37:48;;;;;;;12.98;11.25;;;14.60;99.90;;;;;;4983027;28;20245;-69
2021/08/21 01:40:16;;;;;;;19.70;12.90;;;14.60;99.90;;;;;;4991418;28;20511;-69
2021/08/21 01:42:43;;;;;;;13.07;11.75;;;14.40;99.90;;;;;;4994653;28;20272;-69
2021/08/21 01:45:13;;;;;;;14.07;12.20;;;14.60;99.90;;;;;;4996493;28;20504;-69
2021/08/21 01:47:42;;;;;;;13.98;12.48;;;14.50;99.90;;;;;;4997243;28;20209;-69
2021/08/21 01:50:16;;;;;;;11.38;10.27;;;14.60;99.90;;;;;;4996615;28;20260;-69
2021/08/21 01:52:46;;;;;;;14.25;11.90;;;14.60;99.90;;;;;;4995504;28;20321;-69
2021/08/21 01:55:14;;;;;;;11.90;10.45;;;14.20;99.90;;;;;;4996128;28;20209;-70
2021/08/21 01:57:46;;;;;;;17.25;12.45;;;14.60;99.90;;;;;;4995343;28;20236;-69
2021/08/21 02:00:13;;;;;;;15.15;11.98;;;14.40;99.90;;;;;;4996653;28;20202;-69
2021/08/21 02:02:42;;;;;;;14.02;12.52;;;14.40;99.90;;;;;;4992710;28;20268;-69
2021/08/21 02:05:10;;;;;;;14.98;12.93;;;14.40;99.90;;;;;;4994576;28;20392;-68
2021/08/21 02:07:37;;;;;;;16.50;13.63;;;14.50;99.90;;;;;;5002037;28;20483;-70
2021/08/21 02:10:05;;;;;;;16.20;13.45;;;14.30;99.90;;;;;;4989659;28;20272;-69
2021/08/21 02:12:33;;;;;;;14.75;11.40;;;14.40;99.90;;;;;;4986720;28;20252;-68
2021/08/21 02:15:04;;;;;;;14.63;12.10;;;14.40;99.90;;;;;;4996320;28;20201;-68
2021/08/21 02:17:31;;;;;;;19.45;12.38;;;14.40;99.90;;;;;;4996288;28;20202;-68
2021/08/21 02:19:58;;;;;;;14.07;12.30;;;14.40;99.90;;;;;;4996002;28;20510;-69
2021/08/21 02:22:25;;;;;;;15.88;12.45;;;14.40;99.90;;;;;;5004758;28;20271;-69
2021/08/21 02:24:52;;;;;;;15.07;11.13;;;14.30;99.90;;;;;;4992151;28;20507;-68
2021/08/21 02:27:25;;;;;;;15.52;12.70;;;14.30;99.90;;;;;;4991297;28;20197;-69
2021/08/21 02:29:52;;;;;;;13.88;11.80;;;14.30;99.90;;;;;;4986911;28;20198;-69
2021/08/21 02:32:19;;;;;;;17.33;12.38;;;14.20;99.90;;;;;;5005335;28;20291;-68
2021/08/21 02:34:46;;;;;;;15.10;12.88;;;14.20;99.90;;;;;;4988105;28;20481;-68
2021/08/21 02:37:14;;;;;;;19.38;13.65;;;14.20;99.90;;;;;;5003038;28;20202;-68
2021/08/21 02:39:42;;;;;;;21.45;13.70;;;14.20;99.90;;;;;;4995064;28;20198;-69
2021/08/21 02:42:10;;;;;;;17.23;13.65;;;14.20;99.90;;;;;;4983755;28;20272;-71
2021/08/21 02:44:37;;;;;;;17.35;14.07;;;14.20;99.90;;;;;;5000167;28;20279;-70
2021/08/21 02:47:04;;;;;;;19.40;13.93;;;14.20;99.90;;;;;;5001356;28;20272;-71
2021/08/21 02:49:32;;;;;;;19.00;14.27;;;14.20;99.90;;;;;;4998526;28;20209;-70
2021/08/21 02:52:00;;;;;;;17.48;14.38;;;14.20;99.90;;;;;;5002236;28;20228;-70
2021/08/21 02:54:27;;;;;;;18.05;13.00;;;14.20;99.90;;;;;;4994434;28;20319;-69
2021/08/21 02:56:54;;;;;;;20.05;15.95;;;14.10;99.90;;;;;;5001972;28;20200;-69
2021/08/21 02:59:21;;;;;;;22.38;17.17;;;14.10;99.90;;;;;;5002524;28;20208;-69
2021/08/21 03:01:48;;;;;;;22.60;14.65;;;14.10;99.90;;;;;;5009293;28;20197;-70
2021/08/21 03:04:15;;;;;;;23.80;15.57;;;14.10;99.90;;;;;;5018978;28;20259;-70
2021/08/21 03:06:42;;;;;;;21.88;16.20;;;14.10;99.90;;;;;;5014119;28;20440;-69
2021/08/21 03:09:09;;;;;;;22.15;15.52;;;14.10;99.90;;;;;;5017395;28;20197;-69
2021/08/21 03:11:36;;;;;;;23.00;15.57;;;14.00;99.90;;;;;;5020199;28;20200;-70
2021/08/21 03:14:03;;;;;;;15.52;13.85;;;14.10;99.90;;;;;;5017730;28;20201;-69
2021/08/21 03:16:30;;;;;;;21.88;16.45;;;14.10;99.90;;;;;;5002002;28;20260;-70
2021/08/21 03:18:58;;;;;;;16.42;13.40;;;14.00;99.90;;;;;;4986534;28;20421;-69
2021/08/21 03:21:25;;;;;;;17.63;14.32;;;14.10;99.90;;;;;;5019995;28;20205;-71
2021/08/21 03:23:52;;;;;;;19.30;14.50;;;14.00;99.90;;;;;;5018897;28;20278;-70
2021/08/21 03:26:18;;;;;;;17.70;14.98;;;14.00;99.90;;;;;;4994018;28;20259;-72
2021/08/21 03:28:46;;;;;;;20.95;15.02;;;14.00;99.90;;;;;;5018487;28;20238;-70
2021/08/21 03:31:13;;;;;;;19.83;16.10;;;13.90;99.90;;;;;;4993824;28;20197;-70
2021/08/21 03:33:42;;;;;;;20.23;14.63;;;13.80;99.90;;;;;;5020296;28;20274;-70
2021/08/21 03:36:09;;;;;;;19.90;16.30;;;13.80;99.90;;;;;;5016051;28;20546;-70
2021/08/21 03:38:36;;;;;;;19.48;15.55;;;14.10;99.90;;;;;;4994292;28;20202;-71
2021/08/21 03:41:03;;;;;;;18.67;16.13;;;13.80;99.90;;;;;;5007666;28;20247;-71
2021/08/21 03:43:30;;;;;;;21.38;16.05;;;13.80;99.90;;;;;;4990184;28;20393;-69
2021/08/21 03:45:57;;;;;;;18.88;14.52;;;13.90;99.90;;;;;;5001721;28;20205;-72
2021/08/21 03:48:24;;;;;;;24.52;17.90;;;14.00;99.90;;;;;;5000975;28;20256;-69
2021/08/21 03:50:51;;;;;;;22.30;17.27;;;14.00;99.90;;;;;;5001722;28;20247;-71
2021/08/21 03:53:19;;;;;;;22.50;16.98;;;14.00;99.90;;;;;;5001401;28;20247;-71
2021/08/21 03:55:48;;;;;;;27.38;18.45;;;14.00;99.90;;;;;;4998369;28;20206;-71
2021/08/21 03:58:16;;;;;;;19.00;16.67;;;14.10;99.90;;;;;;4998380;28;20205;-71
2021/08/21 04:00:43;;;;;;;19.60;15.20;;;14.10;99.90;;;;;;4998561;28;20209;-71
2021/08/21 04:03:10;;;;;;;27.55;16.77;;;14.10;99.90;;;;;;4987058;28;20226;-71
2021/08/21 04:05:38;;;;;;;21.15;17.15;;;14.10;99.90;;;;;;5001106;28;20476;-70
2021/08/21 04:08:05;;;;;;;18.55;14.85;;;14.10;99.90;;;;;;5011778;28;20255;-70
2021/08/21 04:10:33;;;;;;;25.25;17.15;;;14.20;99.90;;;;;;5014575;28;20210;-71
2021/08/21 04:13:00;;;;;;;18.83;15.75;;;14.20;99.90;;;;;;4998730;28;20264;-70
2021/08/21 04:15:27;;;;;;;22.17;16.75;;;14.30;99.90;;;;;;4998049;28;20458;-70
2021/08/21 04:17:54;;;;;;;22.52;17.92;;;14.30;99.90;;;;;;4998699;28;20253;-70
2021/08/21 04:20:22;;;;;;;23.38;16.50;;;14.40;99.90;;;;;;4998571;28;20232;-71
2021/08/21 04:22:49;;;;;;;23.85;17.27;;;14.40;99.90;;;;;;4997804;28;20260;-71
2021/08/21 04:25:16;;;;;;;21.92;17.38;;;14.50;99.90;;;;;;5010137;28;20209;-71
2021/08/21 04:27:43;;;;;;;26.50;16.92;;;14.50;99.90;;;;;;5017206;28;20507;-71
2021/08/21 04:30:13;;;;;;;24.05;19.25;;;14.60;99.90;;;;;;5007413;28;20264;-71
2021/08/21 04:32:40;;;;;;;27.30;19.70;;;14.60;99.90;;;;;;5008984;28;20222;-71
2021/08/21 04:35:08;;;;;;;31.27;19.98;;;14.70;99.90;;;;;;4997079;28;20388;-71
2021/08/21 04:37:35;;;;;;;30.75;21.23;;;14.80;99.90;;;;;;5001005;28;20209;-71
2021/08/21 04:40:05;;;;;;;26.05;19.90;;;14.90;99.90;;;;;;4987500;28;20205;-71
2021/08/21 04:42:32;;;;;;;24.42;18.90;;;15.00;99.90;;;;;;4994633;28;20225;-71
2021/08/21 04:44:59;;;;;;;23.10;18.60;;;15.00;99.90;;;;;;4984976;28;20249;-72
2021/08/21 04:47:27;;;;;;;24.15;17.88;;;15.10;99.90;;;;;;4986162;28;20370;-71
2021/08/21 04:49:55;;;;;;;19.33;15.98;;;15.20;99.90;;;;;;4996483;28;20198;-71
2021/08/21 04:52:23;;;;;;;21.73;17.40;;;15.20;99.90;;;;;;4997046;28;20695;-71
2021/08/21 04:54:50;;;;;;;22.20;16.80;;;15.40;99.90;;;;;;4992051;28;20206;-71
2021/08/21 04:57:18;;;;;;;19.83;16.60;;;15.50;99.90;;;;;;4991225;28;20224;-71
2021/08/21 04:59:45;;;;;;;16.42;14.73;;;15.40;99.90;;;;;;4996276;28;20201;-70
2021/08/21 05:02:12;;;;;;;18.55;15.77;;;15.60;99.90;;;;;;4993619;28;20245;-71
2021/08/21 05:04:39;;;;;;;19.52;14.82;;;15.50;99.90;;;;;;4998145;28;20314;-71
2021/08/21 05:07:07;;;;;;;19.60;16.67;;;15.50;99.90;;;;;;5007517;28;20587;-70
2021/08/21 05:09:34;;;;;;;19.02;16.65;;;15.50;99.90;;;;;;4997937;28;20202;-70
2021/08/21 05:12:01;;;;;;;16.42;14.73;;;15.50;99.90;;;;;;5010568;28;20247;-70
2021/08/21 05:14:28;;;;;;;17.77;13.13;;;15.50;99.90;;;;;;4984439;28;20252;-70
2021/08/21 05:16:55;;;;;;;16.23;14.07;;;15.60;99.90;;;;;;4988478;28;20500;-70
2021/08/21 05:19:41;;;;;;;15.00;12.65;;;15.80;99.90;;;;;;4986927;28;20564;-69
2021/08/21 05:22:29;;;;;;;18.00;13.52;;;15.90;99.90;;;;;;4996819;28;20227;-70
2021/08/21 05:24:56;;;;;;;17.50;15.45;;;16.10;99.90;;;;;;4996838;28;20245;-69
2021/08/21 05:27:24;;;;;;;13.70;12.23;;;16.10;99.90;;;;;;4987619;28;20231;-70
2021/08/21 05:29:52;;;;;;;17.55;12.05;;;16.40;99.90;;;;;;5009113;28;20202;-70
2021/08/21 05:32:20;;;;;;;19.35;16.30;;;16.60;99.90;;;;;;4993105;28;20476;-70
2021/08/21 05:34:46;;;;;;;20.08;15.30;;;16.60;99.90;;;;;;4987532;28;20228;-70
2021/08/21 05:37:13;;;;;;;15.90;12.57;;;16.70;99.90;;;;;;4996914;28;20206;-69
2021/08/21 05:39:41;;;;;;;15.67;11.87;;;16.80;99.90;;;;;;4996764;28;20203;-69
2021/08/21 05:42:08;;;;;;;13.30;11.20;;;17.00;99.90;;;;;;4997384;28;20416;-68
2021/08/21 05:44:35;;;;;;;11.23;10.10;;;17.10;99.90;;;;;;4997081;28;20461;-70
2021/08/21 05:47:02;;;;;;;16.10;10.80;;;17.20;99.90;;;;;;4992802;28;20420;-70
2021/08/21 05:49:29;;;;;;;10.00;9.10;;;17.40;99.90;;;;;;4992213;28;21024;-69
2021/08/21 05:51:56;;;;;;;9.80;8.90;;;17.50;99.90;;;;;;4995031;28;20419;-69
2021/08/21 05:54:23;;;;;;;10.10;8.77;;;17.70;99.90;;;;;;4989588;28;20456;-67
2021/08/21 05:56:50;;;;;;;11.20;10.10;;;17.90;99.90;;;;;;5005698;28;20748;-69
2021/08/21 05:59:17;;;;;;;9.17;8.27;;;18.00;99.90;;;;;;5006088;28;20438;-70
2021/08/21 06:01:44;;;;;;;9.53;8.70;;;18.30;99.90;;;;;;4995316;28;20977;-69
2021/08/21 06:04:11;;;;;;;11.23;9.37;;;18.60;99.90;;;;;;4983101;28;20690;-70
2021/08/21 06:06:38;;;;;;;10.00;9.10;;;19.40;99.90;;;;;;4989790;28;20456;-69
2021/08/21 06:09:06;;;;;;;8.27;7.57;;;19.90;99.90;;;;;;4988053;28;20430;-67
2021/08/21 06:11:33;;;;;;;9.67;8.77;;;20.30;99.90;;;;;;5004755;28;20418;-69
2021/08/21 06:14:00;;;;;;;10.43;9.33;;;20.50;99.90;;;;;;4997493;28;20448;-67
2021/08/21 06:16:27;;;;;;;7.50;6.77;;;21.40;99.90;;;;;;4995157;28;20436;-68
2021/08/21 06:18:54;;;;;;;8.27;7.37;;;22.30;99.90;;;;;;4981299;28;20411;-68
2021/08/21 06:21:21;;;;;;;8.03;7.33;;;23.00;99.90;;;;;;4989504;28;20504;-67
2021/08/21 06:23:48;;;;;;;7.83;7.13;;;23.40;99.90;;;;;;4978016;28;20484;-67
2021/08/21 06:26:15;;;;;;;8.17;7.37;;;23.60;99.90;;;;;;4977521;28;20441;-67
2021/08/21 06:28:42;;;;;;;9.70;7.90;;;24.10;99.90;;;;;;4993423;28;20555;-69
2021/08/21 06:31:09;;;;;;;9.37;8.47;;;25.40;99.90;;;;;;4992701;28;20443;-68
2021/08/21 06:33:36;;;;;;;8.33;7.50;;;25.90;99.90;;;;;;4977958;28;20540;-68
2021/08/21 06:36:04;;;;;;;9.20;8.30;;;26.20;99.90;;;;;;4991304;28;20476;-67
2021/08/21 06:38:32;;;;;;;8.87;8.10;;;26.70;99.90;;;;;;4994664;28;20943;-67
2021/08/21 06:40:59;;;;;;;9.00;8.30;;;26.80;99.90;;;;;;5002669;28;20439;-67
2021/08/21 06:43:26;;;;;;;9.33;8.40;;;27.60;99.90;;;;;;5009361;28;20648;-67
2021/08/21 06:45:53;;;;;;;9.40;8.47;;;28.50;98.90;;;;;;5010961;28;20446;-67
2021/08/21 06:48:21;;;;;;;10.60;8.70;;;28.80;96.90;;;;;;4983351;28;20449;-67
2021/08/21 06:50:48;;;;;;;9.00;8.30;;;28.80;96.00;;;;;;4997033;28;20472;-68
2021/08/21 06:53:15;;;;;;;9.53;8.80;;;28.50;96.50;;;;;;4996924;28;20436;-69
2021/08/21 06:55:42;;;;;;;9.23;8.60;;;28.40;95.10;;;;;;4991296;28;20443;-69
2021/08/21 06:58:09;;;;;;;9.63;8.73;;;28.90;94.70;;;;;;4993251;28;20439;-69
2021/08/21 07:00:37;;;;;;;11.20;10.20;;;29.80;94.60;;;;;;4996227;28;20485;-69
2021/08/21 07:03:04;;;;;;;13.07;11.77;;;30.60;92.00;;;;;;4986266;28;20476;-68
2021/08/21 07:05:31;;;;;;;13.43;12.53;;;31.50;88.90;;;;;;5011066;28;21030;-69
2021/08/21 07:07:58;;;;;;;12.20;11.40;;;32.90;85.20;;;;;;5010663;28;20538;-68
2021/08/21 07:10:25;;;;;;;12.37;11.57;;;33.90;80.50;;;;;;4998214;28;20447;-67
2021/08/21 07:12:52;;;;;;;14.17;13.27;;;33.90;78.80;;;;;;4985352;28;20447;-67
2021/08/21 07:15:19;;;;;;;13.70;13.00;;;35.00;73.50;;;;;;4983631;28;20457;-67
2021/08/21 07:17:46;;;;;;;13.37;12.67;;;36.30;69.30;;;;;;4997285;28;20435;-67
2021/08/21 07:20:14;;;;;;;14.00;13.00;;;36.10;66.20;;;;;;4997520;28;20494;-66
2021/08/21 07:22:41;;;;;;;14.20;13.03;;;35.70;67.70;;;;;;4997021;28;20431;-66
2021/08/21 07:25:08;;;;;;;15.63;14.63;;;35.80;67.30;;;;;;4986130;28;20554;-67
2021/08/21 07:27:35;;;;;;;14.60;13.60;;;36.10;65.70;;;;;;4992881;28;20432;-67
2021/08/21 07:30:05;;;;;;;14.27;13.50;;;35.70;67.50;;;;;;5000215;28;20443;-67
2021/08/21 07:32:32;;;;;;;18.17;16.90;;;36.20;66.00;;;;;;4984405;28;20821;-67
2021/08/21 07:35:00;;;;;;;14.90;14.03;;;37.00;63.70;;;;;;4996769;28;20442;-68
2021/08/21 07:37:27;;;;;;;12.83;12.13;;;36.70;63.10;;;;;;5005237;28;20771;-68
2021/08/21 07:39:54;;;;;;;14.70;13.60;;;35.60;66.30;;;;;;4993507;28;20442;-67
2021/08/21 07:42:21;;;;;;;14.40;13.70;;;35.90;63.30;;;;;;5006975;28;20447;-67
2021/08/21 07:44:48;;;;;;;14.47;13.47;;;36.10;63.10;;;;;;4995292;28;20484;-67
2021/08/21 07:47:16;;;;;;;13.90;13.10;;;37.10;62.00;;;;;;4991473;28;20464;-67
2021/08/21 07:49:43;;;;;;;14.40;13.60;;;38.00;59.50;;;;;;5006685;28;20434;-67
2021/08/21 07:52:10;;;;;;;14.63;13.93;;;38.60;58.50;;;;;;5007122;28;20474;-67
2021/08/21 07:54:37;;;;;;;14.73;13.73;;;38.40;56.50;;;;;;4995314;28;20470;-68
2021/08/21 07:57:04;;;;;;;14.30;13.40;;;38.80;56.30;;;;;;5003313;28;20440;-67
2021/08/21 07:59:31;;;;;;;14.40;13.70;;;39.10;56.10;;;;;;4999676;28;20673;-66
2021/08/21 08:01:58;;;;;;;14.33;13.53;;;38.60;55.60;;;;;;4985116;28;20502;-67
2021/08/21 08:04:25;;;;;;;14.77;13.80;;;38.30;56.80;;;;;;4991296;28;20525;-67
2021/08/21 08:06:52;;;;;;;13.83;13.13;;;38.30;55.00;;;;;;4999003;28;20505;-67
2021/08/21 08:09:19;;;;;;;14.40;13.67;;;37.50;54.60;;;;;;5002363;28;20436;-68
2021/08/21 08:11:46;;;;;;;16.47;15.37;;;36.80;55.20;;;;;;4991937;28;20444;-67
2021/08/21 08:14:13;;;;;;;15.03;14.03;;;37.10;55.80;;;;;;4992897;28;20440;-66
2021/08/21 08:16:40;;;;;;;14.43;13.63;;;37.70;55.30;;;;;;4995603;28;20440;-67
2021/08/21 08:19:09;;;;;;;15.93;14.80;;;37.10;56.40;;;;;;4997986;28;20478;-68
2021/08/21 08:21:37;;;;;;;14.97;14.07;;;37.30;55.50;;;;;;5001624;28;20506;-66
2021/08/21 08:24:04;;;;;;;15.77;14.97;;;38.00;54.90;;;;;;5003986;28;20545;-66
2021/08/21 08:26:31;;;;;;;15.13;14.13;;;37.90;53.90;;;;;;5002090;28;20436;-67
2021/08/21 08:28:58;;;;;;;15.00;13.73;;;38.70;53.90;;;;;;4992821;28;20546;-66
2021/08/21 08:31:25;;;;;;;16.47;15.63;;;39.20;51.20;;;;;;4997249;28;20440;-66
2021/08/21 08:33:52;;;;;;;15.53;14.57;;;38.00;52.40;;;;;;4996814;28;20470;-65
2021/08/21 08:36:19;;;;;;;14.97;14.20;;;37.90;53.20;;;;;;5001466;28;20825;-66
2021/08/21 08:38:46;;;;;;;15.23;14.33;;;38.60;52.30;;;;;;4999596;28;21050;-67
2021/08/21 08:41:16;;;;;;;16.20;15.20;;;38.60;50.80;;;;;;5002831;28;20439;-66
2021/08/21 08:43:43;;;;;;;14.43;13.53;;;37.90;51.30;;;;;;5001878;28;20586;-66
2021/08/21 08:46:10;;;;;;;13.23;12.50;;;37.30;51.50;;;;;;5000915;28;20439;-67
2021/08/21 08:48:37;;;;;;;14.47;13.57;;;37.00;53.30;;;;;;4995286;28;20845;-66
2021/08/21 08:51:06;;;;;;;12.90;12.00;;;37.00;53.00;;;;;;5000596;28;20759;-68
2021/08/21 08:53:35;;;;;;;13.07;12.20;;;36.80;53.60;;;;;;4996464;28;20499;-66
2021/08/21 08:56:03;;;;;;;15.53;14.00;;;36.90;52.50;;;;;;5000924;28;20435;-65
2021/08/21 08:58:30;;;;;;;13.67;12.80;;;35.60;54.40;;;;;;5001451;28;20486;-65
2021/08/21 09:00:57;;;;;;;13.83;13.03;;;36.90;52.80;;;;;;5001643;28;20490;-65
2021/08/21 09:03:26;;;;;;;14.50;13.70;;;38.20;51.50;;;;;;4996119;28;20774;-66
2021/08/21 09:05:54;;;;;;;15.57;14.77;;;39.20;48.60;;;;;;4991602;28;20470;-65
2021/08/21 09:08:29;;;;;;;15.73;14.83;;;39.40;48.90;;;;;;4999452;28;20488;-65
2021/08/21 09:11:02;;;;;;;15.57;14.57;;;39.40;47.70;;;;;;4997206;28;20513;-65
2021/08/21 09:13:31;;;;;;;14.57;13.50;;;39.60;48.40;;;;;;4995167;28;20441;-65
2021/08/21 09:16:08;;;;;;;14.83;13.77;;;38.70;48.80;;;;;;4992757;28;20440;-63
2021/08/21 09:18:43;;;;;;;14.13;13.33;;;38.10;48.60;;;;;;4995147;28;20433;-65
2021/08/21 09:21:11;;;;;;;14.87;14.03;;;36.00;51.80;;;;;;4992996;28;20763;-66
2021/08/21 09:23:46;;;;;;;14.40;13.50;;;35.10;53.10;;;;;;4997194;28;20817;-65
2021/08/21 09:26:30;;;;;;;13.57;12.57;;;35.40;52.80;;;;;;4996050;28;20471;-65
2021/08/21 09:28:59;;;;;;;12.37;11.67;;;34.70;53.90;;;;;;4996829;28;21060;-65
2021/08/21 09:31:31;;;;;;;13.10;12.30;;;33.20;57.10;;;;;;5003546;28;20442;-64
2021/08/21 09:34:06;;;;;;;12.67;11.97;;;31.40;59.60;;;;;;4978434;28;20515;-63
2021/08/21 09:36:41;;;;;;;13.10;12.10;;;30.40;63.10;;;;;;4978530;28;20443;-64
2021/08/21 09:39:11;;;;;;;13.20;12.17;;;29.70;64.90;;;;;;4978334;28;20646;-66
2021/08/21 09:42:02;;;;;;;11.73;11.03;;;29.50;66.00;;;;;;4996096;28;20480;-64
2021/08/21 09:44:40;;;;;;;13.30;12.30;;;28.70;67.30;;;;;;4997719;28;20474;-64
2021/08/21 09:47:27;;;;;;;12.70;11.70;;;28.40;68.00;;;;;;4993398;28;20597;-64
2021/08/21 09:50:15;;;;;;;12.90;11.80;;;28.50;68.20;;;;;;4988314;28;20423;-65
2021/08/21 09:52:44;;;;;;;13.77;12.77;;;28.30;68.20;;;;;;4996193;28;20453;-64
2021/08/21 09:55:20;;;;;;;11.80;11.03;;;28.00;71.10;;;;;;4997297;28;20439;-64
2021/08/21 09:58:00;;;;;;;10.10;9.40;;;27.60;73.10;;;;;;4988815;28;20449;-65
2021/08/21 10:00:29;;;;;;;10.30;9.60;;;27.40;73.00;;;;;;4993952;28;20436;-64
2021/08/21 10:02:56;;;;;;;11.50;10.70;;;27.20;74.30;;;;;;4987818;28;20443;-65
2021/08/21 10:05:24;;;;;;;11.47;10.67;;;26.90;75.40;;;;;;5008868;28;20478;-63
2021/08/21 10:08:02;;;;;;;9.90;9.30;;;26.80;73.60;;;;;;4999297;28;20653;-63
2021/08/21 10:10:38;;;;;;;11.07;10.27;;;26.70;74.80;;;;;;4993433;28;20440;-64
2021/08/21 10:13:08;;;;;;;10.03;9.23;;;26.90;75.30;;;;;;4994819;28;20506;-63
2021/08/21 10:15:38;;;;;;;11.60;10.87;;;27.00;73.10;;;;;;4995935;28;20419;-65
2021/08/21 10:18:07;;;;;;;11.27;10.57;;;26.60;74.20;;;;;;4996157;28;20436;-64
2021/08/21 10:20:35;;;;;;;10.97;10.27;;;26.20;75.00;;;;;;4996143;28;20678;-64
2021/08/21 10:23:13;;;;;;;9.37;8.87;;;26.20;74.50;;;;;;4980263;28;20435;-64
2021/08/21 10:25:47;;;;;;;8.37;7.93;;;26.00;75.50;;;;;;4995010;28;20482;-64
2021/08/21 10:28:16;;;;;;;9.40;8.80;;;26.10;75.40;;;;;;4993408;28;20412;-63
2021/08/21 10:30:44;;;;;;;9.40;8.90;;;26.30;76.10;;;;;;5002233;28;20745;-63
2021/08/21 10:33:12;;;;;;;9.63;9.03;;;26.60;75.60;;;;;;4978088;28;20535;-63
2021/08/21 10:35:55;;;;;;;9.50;8.90;;;26.80;75.20;;;;;;4978654;28;20478;-63
2021/08/21 10:38:35;;;;;;;8.40;8.00;;;27.00;72.90;;;;;;4986060;28;20421;-62
2021/08/21 10:41:07;;;;;;;9.93;9.40;;;26.80;73.70;;;;;;5012159;28;20440;-63
2021/08/21 10:43:57;;;;;;;9.93;9.33;;;26.90;75.00;;;;;;5016642;28;20448;-63
2021/08/21 10:46:30;;;;;;;11.87;8.60;;;26.80;74.10;;;;;;5015057;28;20759;-63
2021/08/21 10:48:59;;;;;;;9.50;8.90;;;26.80;75.10;;;;;;4989223;28;20439;-63
2021/08/21 10:51:34;;;;;;;11.43;10.23;;;26.80;74.10;;;;;;4989202;28;20436;-63
2021/08/21 10:54:24;;;;;;;9.17;8.57;;;26.50;73.10;;;;;;4990990;28;20462;-63
2021/08/21 10:56:53;;;;;;;9.00;8.40;;;26.60;75.90;;;;;;4999358;28;20526;-63
2021/08/21 10:59:40;;;;;;;7.70;7.27;;;27.00;75.20;;;;;;5000358;28;20439;-63
2021/08/21 11:02:26;;;;;;;8.37;7.90;;;27.20;71.60;;;;;;4989481;28;20412;-62
2021/08/21 11:04:53;;;;;;;8.17;7.37;;;27.20;72.60;;;;;;4998594;28;20488;-62
2021/08/21 11:07:29;;;;;;;8.93;8.23;;;27.60;71.80;;;;;;4998485;28;20782;-62
2021/08/21 11:10:21;;;;;;;8.40;7.90;;;28.00;71.60;;;;;;5001325;28;20446;-63
2021/08/21 11:12:52;;;;;;;9.20;8.40;;;28.20;68.50;;;;;;5011491;28;20473;-63
2021/08/21 11:15:26;;;;;;;8.57;8.07;;;28.80;68.60;;;;;;5016580;28;20500;-63
2021/08/21 11:17:53;;;;;;;8.97;8.20;;;29.10;68.50;;;;;;5000981;28;20522;-62
2021/08/21 11:20:26;;;;;;;9.10;8.60;;;29.40;67.50;;;;;;4994368;28;20436;-63
2021/08/21 11:23:08;;;;;;;9.57;8.97;;;29.50;67.60;;;;;;5010204;28;20486;-63
2021/08/21 11:25:40;;;;;;;9.13;8.53;;;29.70;67.90;;;;;;5015711;28;20633;-63
2021/08/21 11:28:20;;;;;;;9.13;8.63;;;29.40;68.40;;;;;;5009299;28;20435;-63
2021/08/21 11:31:09;;;;;;;8.63;8.13;;;29.30;69.60;;;;;;4993336;28;20495;-63
2021/08/21 11:33:42;;;;;;;7.60;7.20;;;29.30;66.60;;;;;;4997091;28;20474;-63
2021/08/21 11:36:10;;;;;;;7.73;7.33;;;28.90;68.00;;;;;;4989198;28;20493;-63
2021/08/21 11:38:39;;;;;;;8.03;7.53;;;28.40;69.00;;;;;;4990023;28;20626;-63
2021/08/21 11:41:12;;;;;;;8.67;8.17;;;28.20;70.60;;;;;;5009726;28;20471;-62
2021/08/21 11:43:41;;;;;;;8.97;8.43;;;27.80;71.60;;;;;;5005367;28;20457;-63
2021/08/21 11:46:14;;;;;;;9.40;8.80;;;27.10;72.30;;;;;;5005778;28;20871;-62
2021/08/21 11:48:41;;;;;;;9.27;8.47;;;26.40;73.60;;;;;;4992469;28;20489;-64
2021/08/21 11:51:09;;;;;;;8.40;7.90;;;25.90;76.50;;;;;;5000406;28;20440;-63
2021/08/21 11:53:41;;;;;;;8.57;8.17;;;26.00;74.70;;;;;;4993480;28;20842;-63
2021/08/21 11:56:10;;;;;;;8.23;7.83;;;26.20;72.90;;;;;;5014416;28;20439;-62
2021/08/21 11:58:46;;;;;;;8.53;8.10;;;26.30;73.60;;;;;;4992207;28;20472;-64
2021/08/21 12:01:24;;;;;;;8.90;8.40;;;26.60;75.20;;;;;;5005290;28;20503;-63
2021/08/21 12:06:22;;;;;;;9.07;8.43;;;26.90;73.60;;;;;;4993860;28;20490;-62
2021/08/21 12:08:50;;;;;;;10.07;9.20;;;27.10;72.50;;;;;;5013367;28;20661;-64
2021/08/21 12:11:18;;;;;;;9.80;8.93;;;27.30;71.20;;;;;;5018245;28;20474;-62
2021/08/21 12:13:46;;;;;;;9.50;8.90;;;27.20;73.00;;;;;;5016936;28;20487;-63
2021/08/21 12:16:15;;;;;;;8.20;7.80;;;27.40;71.60;;;;;;4979658;28;20448;-61
2021/08/21 12:18:50;;;;;;;8.80;8.30;;;27.50;70.40;;;;;;4997302;28;20442;-62
2021/08/21 12:21:19;;;;;;;9.10;8.50;;;27.60;72.30;;;;;;5006828;28;20441;-63
2021/08/21 12:23:48;;;;;;;10.23;9.63;;;27.70;72.30;;;;;;5008604;28;20442;-62
2021/08/21 12:26:34;;;;;;;8.83;8.30;;;27.80;71.10;;;;;;4992986;28;20505;-62
2021/08/21 12:29:03;;;;;;;9.00;8.47;;;27.40;74.40;;;;;;5006813;28;20485;-63
2021/08/21 12:31:35;;;;;;;9.40;8.80;;;27.60;74.20;;;;;;5005761;28;20501;-63
2021/08/21 12:34:04;;;;;;;9.13;8.63;;;27.70;72.50;;;;;;5006336;28;20768;-62
2021/08/21 12:36:42;;;;;;;8.80;8.37;;;27.90;72.70;;;;;;4998510;28;20443;-62
2021/08/21 12:39:18;;;;;;;8.90;8.30;;;27.90;71.50;;;;;;4999089;28;20465;-62
2021/08/21 12:41:51;;;;;;;8.17;7.77;;;27.30;72.30;;;;;;4993175;28;20442;-62
2021/08/21 12:44:22;;;;;;;9.13;8.20;;;26.80;73.80;;;;;;5048053;28;20465;-62
2021/08/21 12:46:54;;;;;;;8.97;8.40;;;26.10;76.00;;;;;;4996722;28;20411;-62